CheckWX is a tool to help pilots better visualize weather data.  It is not intended as a substitute for an official pre-flight weather briefing.

14:20:41 UTC

NTAA METAR
Faa'a International Airport
Papeete, French Polynesia
Current

51 mins ago

NTAA 161330Z AUTO 18004KT 9999 BKN031/// 23/19 Q1012 NOSIG
Observed
Jul-16 @ 13:30 UTC
Wind
  • 180° at 4 KTS
Visibility
10,000+ meters
Flight Rules
VFR
Cloud Levels
  • Broken at 3,100' AGL
Temperature
23°C / 73°F
Dewpoint
19°C / 66°F
Humidity
78%
Altimeter
29.88" Hg
Pressure
1011.92 hPa
Previous

1 hour ago

NTAA 161300Z 13003KT 100V160 9999 FEW020 22/19 Q1012 WS ALL RWY NOSIG
Observed
Jul-16 @ 13:00 UTC
Wind
  • 130° at 3 KTS
Visibility
10,000+ meters
Flight Rules
VFR
Cloud Levels
  • Few at 2,000' AGL
Temperature
22°C / 72°F
Dewpoint
19°C / 66°F
Humidity
83%
Altimeter
29.88" Hg
Pressure
1011.92 hPa
Previous

2 hours ago

NTAA 161230Z 08003KT 9999 FEW020 22/19 Q1012 WS ALL RWY NOSIG
Observed
Jul-16 @ 12:30 UTC
Wind
  • 080° at 3 KTS
Visibility
10,000+ meters
Flight Rules
VFR
Cloud Levels
  • Few at 2,000' AGL
Temperature
22°C / 72°F
Dewpoint
19°C / 66°F
Humidity
83%
Altimeter
29.88" Hg
Pressure
1011.92 hPa